sensor_id;sensor_type;location;lat;lon;timestamp;temperature;humidity
9939;DHT22;5008;50.656;7.188;2024-02-21T05:01:18;10.40;99.90
9939;DHT22;5008;50.656;7.188;2024-02-21T05:03:45;10.30;99.90
9939;DHT22;5008;50.656;7.188;2024-02-21T05:06:11;10.30;99.90
9939;DHT22;5008;50.656;7.188;2024-02-21T05:08:38;10.40;99.90
9939;DHT22;5008;50.656;7.188;2024-02-21T05:11:05;10.30;99.90
9939;DHT22;5008;50.656;7.188;2024-02-21T05:13:32;10.30;99.90
9939;DHT22;5008;50.656;7.188;2024-02-21T05:15:59;10.30;99.90
9939;DHT22;5008;50.656;7.188;2024-02-21T05:18:28;10.30;99.90
9939;DHT22;5008;50.656;7.188;2024-02-21T05:20:55;10.30;99.90
9939;DHT22;5008;50.656;7.188;2024-02-21T05:23:21;10.40;99.90
9939;DHT22;5008;50.656;7.188;2024-02-21T05:25:48;10.40;99.90
9939;DHT22;5008;50.656;7.188;2024-02-21T05:28:15;10.30;99.90
9939;DHT22;5008;50.656;7.188;2024-02-21T05:30:42;10.40;99.90
9939;DHT22;5008;50.656;7.188;2024-02-21T05:33:09;10.30;99.90
9939;DHT22;5008;50.656;7.188;2024-02-21T05:35:37;10.30;99.90
9939;DHT22;5008;50.656;7.188;2024-02-21T05:38:04;10.20;99.90
9939;DHT22;5008;50.656;7.188;2024-02-21T05:40:36;10.20;99.90
9939;DHT22;5008;50.656;7.188;2024-02-21T05:43:03;10.30;99.90
9939;DHT22;5008;50.656;7.188;2024-02-21T05:45:30;10.30;99.90
9939;DHT22;5008;50.656;7.188;2024-02-21T05:47:57;10.30;99.90
9939;DHT22;5008;50.656;7.188;2024-02-21T05:50:23;10.30;99.90
9939;DHT22;5008;50.656;7.188;2024-02-21T05:52:54;10.40;99.90
9939;DHT22;5008;50.656;7.188;2024-02-21T05:55:21;10.40;99.90
9939;DHT22;5008;50.656;7.188;2024-02-21T05:57:48;10.50;99.90
9939;DHT22;5008;50.656;7.188;2024-02-21T06:00:15;10.40;99.90
9939;DHT22;5008;50.656;7.188;2024-02-21T06:02:42;10.40;99.90
9939;DHT22;5008;50.656;7.188;2024-02-21T06:05:09;10.30;99.90
9939;DHT22;5008;50.656;7.188;2024-02-21T06:07:36;10.50;99.90
9939;DHT22;5008;50.656;7.188;2024-02-21T06:10:05;10.50;99.90
9939;DHT22;5008;50.656;7.188;2024-02-21T06:12:32;10.50;99.90
9939;DHT22;5008;50.656;7.188;2024-02-21T06:14:59;10.60;99.90
9939;DHT22;5008;50.656;7.188;2024-02-21T06:17:26;10.80;99.90
9939;DHT22;5008;50.656;7.188;2024-02-21T06:19:52;10.70;99.90
9939;DHT22;5008;50.656;7.188;2024-02-21T06:22:19;10.70;99.90
9939;DHT22;5008;50.656;7.188;2024-02-21T06:24:46;10.70;99.90
9939;DHT22;5008;50.656;7.188;2024-02-21T06:27:14;10.60;99.90
9939;DHT22;5008;50.656;7.188;2024-02-21T06:29:42;10.50;99.90
9939;DHT22;5008;50.656;7.188;2024-02-21T06:32:08;10.60;99.90
9939;DHT22;5008;50.656;7.188;2024-02-21T06:34:35;10.60;99.90
9939;DHT22;5008;50.656;7.188;2024-02-21T06:37:02;10.50;99.90
9939;DHT22;5008;50.656;7.188;2024-02-21T06:39:29;10.50;99.90
9939;DHT22;5008;50.656;7.188;2024-02-21T06:41:56;10.50;99.90
9939;DHT22;5008;50.656;7.188;2024-02-21T06:44:24;10.50;99.90
9939;DHT22;5008;50.656;7.188;2024-02-21T06:46:51;10.40;99.90
9939;DHT22;5008;50.656;7.188;2024-02-21T06:49:18;10.40;99.90
9939;DHT22;5008;50.656;7.188;2024-02-21T06:51:45;10.50;99.90
9939;DHT22;5008;50.656;7.188;2024-02-21T06:54:11;10.40;99.90
9939;DHT22;5008;50.656;7.188;2024-02-21T06:56:40;10.40;99.90
9939;DHT22;5008;50.656;7.188;2024-02-21T06:59:06;10.30;99.90
9939;DHT22;5008;50.656;7.188;2024-02-21T07:01:35;10.20;99.90
9939;DHT22;5008;50.656;7.188;2024-02-21T07:04:01;10.10;99.90
9939;DHT22;5008;50.656;7.188;2024-02-21T07:06:28;10.10;99.90
9939;DHT22;5008;50.656;7.188;2024-02-21T07:08:56;10.10;99.90
9939;DHT22;5008;50.656;7.188;2024-02-21T07:11:23;10.10;99.90
9939;DHT22;5008;50.656;7.188;2024-02-21T07:13:50;10.10;99.90
9939;DHT22;5008;50.656;7.188;2024-02-21T07:16:17;10.20;99.90
9939;DHT22;5008;50.656;7.188;2024-02-21T07:18:45;10.10;99.90
9939;DHT22;5008;50.656;7.188;2024-02-21T07:21:12;10.20;99.90
9939;DHT22;5008;50.656;7.188;2024-02-21T07:23:40;10.10;99.90
9939;DHT22;5008;50.656;7.188;2024-02-21T07:26:07;10.20;99.90
9939;DHT22;5008;50.656;7.188;2024-02-21T07:28:35;10.40;99.90
9939;DHT22;5008;50.656;7.188;2024-02-21T07:31:02;10.40;99.90
9939;DHT22;5008;50.656;7.188;2024-02-21T07:33:29;10.30;99.90
9939;DHT22;5008;50.656;7.188;2024-02-21T07:35:58;10.40;99.90
9939;DHT22;5008;50.656;7.188;2024-02-21T07:38:24;10.50;99.90
9939;DHT22;5008;50.656;7.188;2024-02-21T07:40:51;10.50;99.90
9939;DHT22;5008;50.656;7.188;2024-02-21T07:43:18;10.30;99.90
9939;DHT22;5008;50.656;7.188;2024-02-21T07:45:50;10.10;99.90
9939;DHT22;5008;50.656;7.188;2024-02-21T07:48:18;10.20;99.90
9939;DHT22;5008;50.656;7.188;2024-02-21T07:51:00;10.00;99.90
9939;DHT22;5008;50.656;7.188;2024-02-21T07:53:27;9.90;99.90
9939;DHT22;5008;50.656;7.188;2024-02-21T07:55:54;9.90;99.90
9939;DHT22;5008;50.656;7.188;2024-02-21T07:58:21;9.90;99.90
9939;DHT22;5008;50.656;7.188;2024-02-21T08:00:48;9.90;99.90
9939;DHT22;5008;50.656;7.188;2024-02-21T08:03:15;10.00;99.90
9939;DHT22;5008;50.656;7.188;2024-02-21T08:05:44;10.00;99.90
9939;DHT22;5008;50.656;7.188;2024-02-21T08:08:12;9.90;99.90
9939;DHT22;5008;50.656;7.188;2024-02-21T08:10:43;10.00;99.90
9939;DHT22;5008;50.656;7.188;2024-02-21T08:13:10;10.10;99.90
9939;DHT22;5008;50.656;7.188;2024-02-21T08:15:37;10.00;99.90
9939;DHT22;5008;50.656;7.188;2024-02-21T08:18:05;10.00;99.90
9939;DHT22;5008;50.656;7.188;2024-02-21T08:20:32;10.10;99.90
9939;DHT22;5008;50.656;7.188;2024-02-21T08:22:58;10.20;99.90
9939;DHT22;5008;50.656;7.188;2024-02-21T08:25:27;10.20;99.90
9939;DHT22;5008;50.656;7.188;2024-02-21T08:27:58;10.10;99.90
9939;DHT22;5008;50.656;7.188;2024-02-21T08:30:25;10.20;99.90
9939;DHT22;5008;50.656;7.188;2024-02-21T08:32:52;10.20;99.90
9939;DHT22;5008;50.656;7.188;2024-02-21T08:35:19;10.10;99.90
9939;DHT22;5008;50.656;7.188;2024-02-21T08:37:47;10.20;99.90
9939;DHT22;5008;50.656;7.188;2024-02-21T08:40:14;10.10;99.90
9939;DHT22;5008;50.656;7.188;2024-02-21T08:42:44;10.20;99.90
9939;DHT22;5008;50.656;7.188;2024-02-21T08:45:11;10.30;99.90
9939;DHT22;5008;50.656;7.188;2024-02-21T08:47:39;10.40;99.90
9939;DHT22;5008;50.656;7.188;2024-02-21T08:50:07;10.40;99.90
9939;DHT22;5008;50.656;7.188;2024-02-21T08:52:43;10.50;99.90
9939;DHT22;5008;50.656;7.188;2024-02-21T08:55:10;10.40;99.90
9939;DHT22;5008;50.656;7.188;2024-02-21T08:57:36;10.40;99.90
9939;DHT22;5008;50.656;7.188;2024-02-21T09:00:06;10.30;99.90
9939;DHT22;5008;50.656;7.188;2024-02-21T09:02:36;10.40;99.90
9939;DHT22;5008;50.656;7.188;2024-02-21T09:05:04;10.40;99.90
9939;DHT22;5008;50.656;7.188;2024-02-21T09:07:31;10.50;99.90
9939;DHT22;5008;50.656;7.188;2024-02-21T09:09:58;10.50;99.90
9939;DHT22;5008;50.656;7.188;2024-02-21T09:12:25;10.60;99.90
9939;DHT22;5008;50.656;7.188;2024-02-21T09:14:52;10.70;99.90
9939;DHT22;5008;50.656;7.188;2024-02-21T09:17:20;10.80;99.90
9939;DHT22;5008;50.656;7.188;2024-02-21T09:19:47;10.80;99.90
9939;DHT22;5008;50.656;7.188;2024-02-21T09:22:14;10.80;99.90
9939;DHT22;5008;50.656;7.188;2024-02-21T09:24:41;10.90;99.90
9939;DHT22;5008;50.656;7.188;2024-02-21T09:27:07;10.90;99.90
9939;DHT22;5008;50.656;7.188;2024-02-21T09:29:34;10.90;99.90
9939;DHT22;5008;50.656;7.188;2024-02-21T09:32:01;10.90;99.90
9939;DHT22;5008;50.656;7.188;2024-02-21T09:34:30;11.00;99.90
9939;DHT22;5008;50.656;7.188;2024-02-21T09:36:57;11.00;99.90
9939;DHT22;5008;50.656;7.188;2024-02-21T09:39:24;11.10;99.90
9939;DHT22;5008;50.656;7.188;2024-02-21T09:41:53;11.10;99.90
9939;DHT22;5008;50.656;7.188;2024-02-21T09:44:24;11.30;99.90
9939;DHT22;5008;50.656;7.188;2024-02-21T09:47:02;11.20;99.90
9939;DHT22;5008;50.656;7.188;2024-02-21T09:49:31;11.20;99.90
9939;DHT22;5008;50.656;7.188;2024-02-21T09:52:01;11.20;99.90
9939;DHT22;5008;50.656;7.188;2024-02-21T09:54:29;11.20;99.90
9939;DHT22;5008;50.656;7.188;2024-02-21T09:56:56;11.30;99.90
9939;DHT22;5008;50.656;7.188;2024-02-21T09:59:24;11.30;99.90
9939;DHT22;5008;50.656;7.188;2024-02-21T10:01:51;11.30;99.90
9939;DHT22;5008;50.656;7.188;2024-02-21T10:04:19;11.30;99.90
9939;DHT22;5008;50.656;7.188;2024-02-21T10:06:47;11.30;99.90
9939;DHT22;5008;50.656;7.188;2024-02-21T10:09:21;11.40;99.90
9939;DHT22;5008;50.656;7.188;2024-02-21T10:11:48;11.40;99.90
9939;DHT22;5008;50.656;7.188;2024-02-21T10:14:15;11.40;99.90
9939;DHT22;5008;50.656;7.188;2024-02-21T10:16:42;11.60;99.90
9939;DHT22;5008;50.656;7.188;2024-02-21T10:19:16;11.60;99.90
9939;DHT22;5008;50.656;7.188;2024-02-21T10:21:43;11.60;99.90
9939;DHT22;5008;50.656;7.188;2024-02-21T10:24:12;11.70;99.90
9939;DHT22;5008;50.656;7.188;2024-02-21T10:26:39;11.70;99.90
9939;DHT22;5008;50.656;7.188;2024-02-21T10:29:05;11.80;99.90
9939;DHT22;5008;50.656;7.188;2024-02-21T10:31:32;11.90;99.90
9939;DHT22;5008;50.656;7.188;2024-02-21T10:34:00;11.90;99.90
9939;DHT22;5008;50.656;7.188;2024-02-21T10:36:29;11.90;99.90
9939;DHT22;5008;50.656;7.188;2024-02-21T10:38:56;12.00;99.90
9939;DHT22;5008;50.656;7.188;2024-02-21T10:41:24;12.00;99.90
9939;DHT22;5008;50.656;7.188;2024-02-21T10:43:53;12.10;99.90
9939;DHT22;5008;50.656;7.188;2024-02-21T10:46:22;12.10;99.90
9939;DHT22;5008;50.656;7.188;2024-02-21T10:48:57;12.10;99.90
9939;DHT22;5008;50.656;7.188;2024-02-21T10:51:30;12.20;99.90
9939;DHT22;5008;50.656;7.188;2024-02-21T10:54:13;12.30;99.90
9939;DHT22;5008;50.656;7.188;2024-02-21T10:56:50;12.30;99.90
9939;DHT22;5008;50.656;7.188;2024-02-21T10:59:18;12.40;99.90
9939;DHT22;5008;50.656;7.188;2024-02-21T11:01:45;12.40;99.90
9939;DHT22;5008;50.656;7.188;2024-02-21T11:04:12;12.40;99.90
9939;DHT22;5008;50.656;7.188;2024-02-21T11:06:41;12.50;99.90
9939;DHT22;5008;50.656;7.188;2024-02-21T11:09:09;12.50;99.90
9939;DHT22;5008;50.656;7.188;2024-02-21T11:11:38;12.50;99.90
9939;DHT22;5008;50.656;7.188;2024-02-21T11:14:07;12.60;99.90
9939;DHT22;5008;50.656;7.188;2024-02-21T11:16:38;12.60;99.90
9939;DHT22;5008;50.656;7.188;2024-02-21T11:19:08;12.60;99.90
9939;DHT22;5008;50.656;7.188;2024-02-21T11:21:37;12.70;99.90
9939;DHT22;5008;50.656;7.188;2024-02-21T11:24:04;12.70;99.90
9939;DHT22;5008;50.656;7.188;2024-02-21T11:26:32;12.90;99.90
9939;DHT22;5008;50.656;7.188;2024-02-21T11:29:00;12.90;99.90
9939;DHT22;5008;50.656;7.188;2024-02-21T11:31:38;13.00;99.90
9939;DHT22;5008;50.656;7.188;2024-02-21T11:34:08;12.90;99.90
9939;DHT22;5008;50.656;7.188;2024-02-21T11:36:34;12.90;99.90
9939;DHT22;5008;50.656;7.188;2024-02-21T11:39:03;12.90;99.90
9939;DHT22;5008;50.656;7.188;2024-02-21T11:41:31;13.00;99.90
9939;DHT22;5008;50.656;7.188;2024-02-21T11:43:57;12.90;99.90
9939;DHT22;5008;50.656;7.188;2024-02-21T11:46:24;12.90;99.90
9939;DHT22;5008;50.656;7.188;2024-02-21T11:48:52;12.90;99.90
9939;DHT22;5008;50.656;7.188;2024-02-21T11:51:24;12.90;99.90
9939;DHT22;5008;50.656;7.188;2024-02-21T11:53:52;12.90;99.90
9939;DHT22;5008;50.656;7.188;2024-02-21T11:56:18;12.90;99.90
9939;DHT22;5008;50.656;7.188;2024-02-21T11:58:46;12.80;99.90
9939;DHT22;5008;50.656;7.188;2024-02-21T12:01:13;12.80;99.90
9939;DHT22;5008;50.656;7.188;2024-02-21T12:03:40;12.80;99.90
9939;DHT22;5008;50.656;7.188;2024-02-21T12:06:08;12.90;99.90
9939;DHT22;5008;50.656;7.188;2024-02-21T12:08:42;12.90;99.90
9939;DHT22;5008;50.656;7.188;2024-02-21T12:11:17;12.90;99.90
9939;DHT22;5008;50.656;7.188;2024-02-21T12:13:45;12.90;99.90
9939;DHT22;5008;50.656;7.188;2024-02-21T12:16:15;12.80;99.90
9939;DHT22;5008;50.656;7.188;2024-02-21T12:18:42;12.90;99.90
9939;DHT22;5008;50.656;7.188;2024-02-21T12:21:11;12.90;99.90
9939;DHT22;5008;50.656;7.188;2024-02-21T12:23:38;12.90;99.90
9939;DHT22;5008;50.656;7.188;2024-02-21T12:26:05;12.90;99.90
9939;DHT22;5008;50.656;7.188;2024-02-21T12:28:33;12.90;99.90
9939;DHT22;5008;50.656;7.188;2024-02-21T12:31:00;12.90;99.90
9939;DHT22;5008;50.656;7.188;2024-02-21T12:33:30;12.90;99.90
9939;DHT22;5008;50.656;7.188;2024-02-21T12:35:56;13.00;99.90
9939;DHT22;5008;50.656;7.188;2024-02-21T12:38:24;12.90;99.90
9939;DHT22;5008;50.656;7.188;2024-02-21T12:40:52;12.90;99.90
9939;DHT22;5008;50.656;7.188;2024-02-21T12:43:18;12.90;99.90
9939;DHT22;5008;50.656;7.188;2024-02-21T12:45:45;12.90;99.90
9939;DHT22;5008;50.656;7.188;2024-02-21T12:48:12;12.90;99.90
9939;DHT22;5008;50.656;7.188;2024-02-21T12:50:40;12.80;99.90
9939;DHT22;5008;50.656;7.188;2024-02-21T12:53:07;12.80;99.90
9939;DHT22;5008;50.656;7.188;2024-02-21T12:55:36;12.70;99.90
9939;DHT22;5008;50.656;7.188;2024-02-21T12:58:04;12.60;99.90
9939;DHT22;5008;50.656;7.188;2024-02-21T13:00:32;12.70;99.90
9939;DHT22;5008;50.656;7.188;2024-02-21T13:03:01;12.70;99.90
9939;DHT22;5008;50.656;7.188;2024-02-21T13:05:28;12.70;99.90
9939;DHT22;5008;50.656;7.188;2024-02-21T13:07:55;12.80;99.90
9939;DHT22;5008;50.656;7.188;2024-02-21T13:10:21;12.80;99.90
9939;DHT22;5008;50.656;7.188;2024-02-21T13:12:49;12.70;99.90
9939;DHT22;5008;50.656;7.188;2024-02-21T13:15:16;12.70;99.90
9939;DHT22;5008;50.656;7.188;2024-02-21T13:17:43;12.70;99.90
9939;DHT22;5008;50.656;7.188;2024-02-21T13:20:11;12.70;99.90
9939;DHT22;5008;50.656;7.188;2024-02-21T13:22:38;12.70;99.90
9939;DHT22;5008;50.656;7.188;2024-02-21T13:25:05;12.70;99.90
9939;DHT22;5008;50.656;7.188;2024-02-21T13:27:33;12.60;99.90
9939;DHT22;5008;50.656;7.188;2024-02-21T13:30:01;12.60;99.90
9939;DHT22;5008;50.656;7.188;2024-02-21T13:32:31;12.60;99.90
9939;DHT22;5008;50.656;7.188;2024-02-21T13:34:58;12.60;99.90
9939;DHT22;5008;50.656;7.188;2024-02-21T13:37:26;12.60;99.90
9939;DHT22;5008;50.656;7.188;2024-02-21T13:39:54;12.50;99.90
9939;DHT22;5008;50.656;7.188;2024-02-21T13:42:21;12.40;99.90
9939;DHT22;5008;50.656;7.188;2024-02-21T13:44:49;12.30;99.90
9939;DHT22;5008;50.656;7.188;2024-02-21T13:47:17;12.30;99.90
9939;DHT22;5008;50.656;7.188;2024-02-21T13:49:44;12.20;99.90
9939;DHT22;5008;50.656;7.188;2024-02-21T13:52:11;12.20;99.90
9939;DHT22;5008;50.656;7.188;2024-02-21T13:54:37;12.20;99.90
9939;DHT22;5008;50.656;7.188;2024-02-21T13:57:04;12.20;99.90
9939;DHT22;5008;50.656;7.188;2024-02-21T13:59:31;12.20;99.90
9939;DHT22;5008;50.656;7.188;2024-02-21T14:02:00;12.10;99.90
9939;DHT22;5008;50.656;7.188;2024-02-21T14:04:28;12.10;99.90
9939;DHT22;5008;50.656;7.188;2024-02-21T14:06:55;12.10;99.90
9939;DHT22;5008;50.656;7.188;2024-02-21T14:09:22;12.10;99.90
9939;DHT22;5008;50.656;7.188;2024-02-21T14:11:49;12.10;99.90
9939;DHT22;5008;50.656;7.188;2024-02-21T14:14:16;12.10;99.90
9939;DHT22;5008;50.656;7.188;2024-02-21T14:16:42;12.00;99.90
9939;DHT22;5008;50.656;7.188;2024-02-21T14:19:09;12.00;99.90
9939;DHT22;5008;50.656;7.188;2024-02-21T14:21:38;12.00;99.90
9939;DHT22;5008;50.656;7.188;2024-02-21T14:24:05;12.00;99.90
9939;DHT22;5008;50.656;7.188;2024-02-21T14:26:33;12.00;99.90
9939;DHT22;5008;50.656;7.188;2024-02-21T14:29:01;11.90;99.90
9939;DHT22;5008;50.656;7.188;2024-02-21T14:31:29;11.90;99.90
9939;DHT22;5008;50.656;7.188;2024-02-21T14:33:57;11.90;99.90
9939;DHT22;5008;50.656;7.188;2024-02-21T14:36:25;11.90;99.90
9939;DHT22;5008;50.656;7.188;2024-02-21T14:38:53;11.80;99.90
9939;DHT22;5008;50.656;7.188;2024-02-21T14:41:20;11.80;99.90
9939;DHT22;5008;50.656;7.188;2024-02-21T14:43:47;11.70;99.90
9939;DHT22;5008;50.656;7.188;2024-02-21T14:46:14;11.70;99.90
9939;DHT22;5008;50.656;7.188;2024-02-21T14:48:40;11.80;99.90
9939;DHT22;5008;50.656;7.188;2024-02-21T14:51:07;11.80;99.90
9939;DHT22;5008;50.656;7.188;2024-02-21T14:53:34;11.90;99.90
9939;DHT22;5008;50.656;7.188;2024-02-21T14:56:02;12.00;99.90
9939;DHT22;5008;50.656;7.188;2024-02-21T14:58:29;12.00;99.90
9939;DHT22;5008;50.656;7.188;2024-02-21T15:00:56;12.00;99.90
9939;DHT22;5008;50.656;7.188;2024-02-21T15:03:23;12.00;99.90
9939;DHT22;5008;50.656;7.188;2024-02-21T15:05:53;12.00;99.90
9939;DHT22;5008;50.656;7.188;2024-02-21T15:08:20;12.00;99.90
9939;DHT22;5008;50.656;7.188;2024-02-21T15:10:47;12.00;99.90
9939;DHT22;5008;50.656;7.188;2024-02-21T15:13:17;11.90;99.90
9939;DHT22;5008;50.656;7.188;2024-02-21T15:15:43;11.90;99.90
9939;DHT22;5008;50.656;7.188;2024-02-21T15:18:10;11.80;99.90
9939;DHT22;5008;50.656;7.188;2024-02-21T15:20:37;11.80;99.90
9939;DHT22;5008;50.656;7.188;2024-02-21T15:23:04;11.90;99.90
9939;DHT22;5008;50.656;7.188;2024-02-21T15:25:31;11.80;99.90
9939;DHT22;5008;50.656;7.188;2024-02-21T15:27:57;11.80;99.90
9939;DHT22;5008;50.656;7.188;2024-02-21T15:30:26;11.90;99.90
9939;DHT22;5008;50.656;7.188;2024-02-21T15:32:57;11.90;99.90
9939;DHT22;5008;50.656;7.188;2024-02-21T15:35:27;11.90;99.90
9939;DHT22;5008;50.656;7.188;2024-02-21T15:37:53;11.80;99.90
9939;DHT22;5008;50.656;7.188;2024-02-21T15:40:21;11.80;99.90
9939;DHT22;5008;50.656;7.188;2024-02-21T15:42:48;11.70;99.90
9939;DHT22;5008;50.656;7.188;2024-02-21T15:45:15;11.60;99.90
9939;DHT22;5008;50.656;7.188;2024-02-21T15:47:43;11.60;99.90
9939;DHT22;5008;50.656;7.188;2024-02-21T15:50:10;11.70;99.90
9939;DHT22;5008;50.656;7.188;2024-02-21T15:52:37;11.70;99.90
9939;DHT22;5008;50.656;7.188;2024-02-21T15:55:04;11.60;99.90
9939;DHT22;5008;50.656;7.188;2024-02-21T15:57:33;11.50;99.90
9939;DHT22;5008;50.656;7.188;2024-02-21T16:00:00;11.40;99.90
9939;DHT22;5008;50.656;7.188;2024-02-21T16:02:29;11.40;99.90
9939;DHT22;5008;50.656;7.188;2024-02-21T16:04:57;11.30;99.90
9939;DHT22;5008;50.656;7.188;2024-02-21T16:07:24;11.40;99.90
9939;DHT22;5008;50.656;7.188;2024-02-21T16:09:51;11.40;99.90
9939;DHT22;5008;50.656;7.188;2024-02-21T16:12:17;11.30;99.90
9939;DHT22;5008;50.656;7.188;2024-02-21T16:14:44;11.30;99.90
9939;DHT22;5008;50.656;7.188;2024-02-21T16:17:13;11.30;99.90
9939;DHT22;5008;50.656;7.188;2024-02-21T16:19:39;11.30;99.90
9939;DHT22;5008;50.656;7.188;2024-02-21T16:22:07;11.30;99.90
9939;DHT22;5008;50.656;7.188;2024-02-21T16:24:34;11.20;99.90
9939;DHT22;5008;50.656;7.188;2024-02-21T16:27:01;11.10;99.90
9939;DHT22;5008;50.656;7.188;2024-02-21T16:29:34;11.10;99.90
9939;DHT22;5008;50.656;7.188;2024-02-21T16:32:01;11.20;99.90
9939;DHT22;5008;50.656;7.188;2024-02-21T16:34:27;11.40;99.90
9939;DHT22;5008;50.656;7.188;2024-02-21T16:36:55;11.70;99.90
9939;DHT22;5008;50.656;7.188;2024-02-21T16:39:24;11.80;99.90
9939;DHT22;5008;50.656;7.188;2024-02-21T16:41:51;11.90;99.90
9939;DHT22;5008;50.656;7.188;2024-02-21T16:44:21;11.90;99.90
9939;DHT22;5008;50.656;7.188;2024-02-21T16:46:47;12.00;99.90
9939;DHT22;5008;50.656;7.188;2024-02-21T16:49:14;12.00;99.90
9939;DHT22;5008;50.656;7.188;2024-02-21T16:51:43;11.90;99.90
9939;DHT22;5008;50.656;7.188;2024-02-21T16:54:10;11.90;99.90
9939;DHT22;5008;50.656;7.188;2024-02-21T16:56:38;11.90;99.90
9939;DHT22;5008;50.656;7.188;2024-02-21T16:59:05;12.10;99.90
9939;DHT22;5008;50.656;7.188;2024-02-21T17:01:34;12.00;99.90
9939;DHT22;5008;50.656;7.188;2024-02-21T17:04:04;12.00;99.90
9939;DHT22;5008;50.656;7.188;2024-02-21T17:06:32;12.00;99.90
9939;DHT22;5008;50.656;7.188;2024-02-21T17:08:59;12.10;99.90
9939;DHT22;5008;50.656;7.188;2024-02-21T17:11:26;12.00;99.90
9939;DHT22;5008;50.656;7.188;2024-02-21T17:13:54;11.90;99.90
9939;DHT22;5008;50.656;7.188;2024-02-21T17:16:21;12.00;99.90
9939;DHT22;5008;50.656;7.188;2024-02-21T17:18:48;12.10;99.90
9939;DHT22;5008;50.656;7.188;2024-02-21T17:21:15;12.00;99.90
9939;DHT22;5008;50.656;7.188;2024-02-21T17:23:42;12.00;99.90
9939;DHT22;5008;50.656;7.188;2024-02-21T17:26:08;11.90;99.90
9939;DHT22;5008;50.656;7.188;2024-02-21T17:28:36;11.90;99.90
9939;DHT22;5008;50.656;7.188;2024-02-21T17:31:05;11.90;99.90
9939;DHT22;5008;50.656;7.188;2024-02-21T17:33:31;11.90;99.90
9939;DHT22;5008;50.656;7.188;2024-02-21T17:35:58;11.90;99.90
9939;DHT22;5008;50.656;7.188;2024-02-21T17:38:25;12.00;99.90
9939;DHT22;5008;50.656;7.188;2024-02-21T17:40:53;12.00;99.90
9939;DHT22;5008;50.656;7.188;2024-02-21T17:43:19;12.00;99.90
9939;DHT22;5008;50.656;7.188;2024-02-21T17:45:46;11.90;99.90
9939;DHT22;5008;50.656;7.188;2024-02-21T17:48:16;11.90;99.90
9939;DHT22;5008;50.656;7.188;2024-02-21T17:50:44;12.00;99.90
9939;DHT22;5008;50.656;7.188;2024-02-21T17:53:10;11.90;99.90
9939;DHT22;5008;50.656;7.188;2024-02-21T17:55:38;11.90;99.90
9939;DHT22;5008;50.656;7.188;2024-02-21T17:58:04;11.90;99.90
9939;DHT22;5008;50.656;7.188;2024-02-21T18:00:32;11.90;99.90
9939;DHT22;5008;50.656;7.188;2024-02-21T18:02:59;12.10;99.90
9939;DHT22;5008;50.656;7.188;2024-02-21T18:05:28;12.00;99.90
9939;DHT22;5008;50.656;7.188;2024-02-21T18:07:56;12.00;99.90
9939;DHT22;5008;50.656;7.188;2024-02-21T18:10:23;12.00;99.90
9939;DHT22;5008;50.656;7.188;2024-02-21T18:12:50;12.00;99.90
9939;DHT22;5008;50.656;7.188;2024-02-21T18:15:17;12.00;99.90
9939;DHT22;5008;50.656;7.188;2024-02-21T18:17:43;12.20;99.90
9939;DHT22;5008;50.656;7.188;2024-02-21T18:20:10;12.00;99.90
9939;DHT22;5008;50.656;7.188;2024-02-21T18:22:38;12.10;99.90
9939;DHT22;5008;50.656;7.188;2024-02-21T18:25:06;12.00;99.90
9939;DHT22;5008;50.656;7.188;2024-02-21T18:27:34;11.90;99.90
9939;DHT22;5008;50.656;7.188;2024-02-21T18:30:01;11.90;99.90
9939;DHT22;5008;50.656;7.188;2024-02-21T18:32:28;11.80;99.90
9939;DHT22;5008;50.656;7.188;2024-02-21T18:34:54;11.90;99.90
9939;DHT22;5008;50.656;7.188;2024-02-21T18:37:21;11.90;99.90
9939;DHT22;5008;50.656;7.188;2024-02-21T18:39:50;11.90;99.90
9939;DHT22;5008;50.656;7.188;2024-02-21T18:42:17;12.00;99.90
9939;DHT22;5008;50.656;7.188;2024-02-21T18:44:44;11.90;99.90
9939;DHT22;5008;50.656;7.188;2024-02-21T18:47:11;11.80;99.90
9939;DHT22;5008;50.656;7.188;2024-02-21T18:49:38;11.80;99.90
9939;DHT22;5008;50.656;7.188;2024-02-21T18:52:09;11.80;99.90
9939;DHT22;5008;50.656;7.188;2024-02-21T18:54:39;11.90;99.90
9939;DHT22;5008;50.656;7.188;2024-02-21T18:57:07;11.80;99.90
9939;DHT22;5008;50.656;7.188;2024-02-21T18:59:34;11.90;99.90
9939;DHT22;5008;50.656;7.188;2024-02-21T19:02:01;12.10;99.90
9939;DHT22;5008;50.656;7.188;2024-02-21T19:04:28;12.00;99.90
9939;DHT22;5008;50.656;7.188;2024-02-21T19:06:55;11.90;99.90
9939;DHT22;5008;50.656;7.188;2024-02-21T19:09:22;11.90;99.90
9939;DHT22;5008;50.656;7.188;2024-02-21T19:11:49;11.90;99.90
9939;DHT22;5008;50.656;7.188;2024-02-21T19:14:18;11.80;99.90
9939;DHT22;5008;50.656;7.188;2024-02-21T19:16:44;11.80;99.90
9939;DHT22;5008;50.656;7.188;2024-02-21T19:19:11;11.90;99.90
9939;DHT22;5008;50.656;7.188;2024-02-21T19:21:38;11.90;99.90
9939;DHT22;5008;50.656;7.188;2024-02-21T19:24:07;11.90;99.90
9939;DHT22;5008;50.656;7.188;2024-02-21T19:26:34;11.80;99.90
9939;DHT22;5008;50.656;7.188;2024-02-21T19:29:01;11.70;99.90
9939;DHT22;5008;50.656;7.188;2024-02-21T19:31:29;11.70;99.90
9939;DHT22;5008;50.656;7.188;2024-02-21T19:33:56;11.90;99.90
9939;DHT22;5008;50.656;7.188;2024-02-21T19:36:22;12.00;99.90
9939;DHT22;5008;50.656;7.188;2024-02-21T19:38:51;11.90;99.90
9939;DHT22;5008;50.656;7.188;2024-02-21T19:41:18;11.90;99.90
9939;DHT22;5008;50.656;7.188;2024-02-21T19:43:45;11.80;99.90
9939;DHT22;5008;50.656;7.188;2024-02-21T19:46:12;11.80;99.90
9939;DHT22;5008;50.656;7.188;2024-02-21T19:48:40;11.80;99.90
9939;DHT22;5008;50.656;7.188;2024-02-21T19:51:07;11.80;99.90
9939;DHT22;5008;50.656;7.188;2024-02-21T19:53:34;11.70;99.90
9939;DHT22;5008;50.656;7.188;2024-02-21T19:56:01;11.70;99.90
9939;DHT22;5008;50.656;7.188;2024-02-21T19:58:27;11.50;99.90
9939;DHT22;5008;50.656;7.188;2024-02-21T20:00:56;11.40;99.90
9939;DHT22;5008;50.656;7.188;2024-02-21T20:03:22;11.40;99.90
9939;DHT22;5008;50.656;7.188;2024-02-21T20:05:52;11.50;99.90
9939;DHT22;5008;50.656;7.188;2024-02-21T20:08:19;11.40;99.90
9939;DHT22;5008;50.656;7.188;2024-02-21T20:10:47;11.50;99.90
9939;DHT22;5008;50.656;7.188;2024-02-21T20:13:14;11.40;99.90
9939;DHT22;5008;50.656;7.188;2024-02-21T20:15:41;11.30;99.90
9939;DHT22;5008;50.656;7.188;2024-02-21T20:18:08;11.00;99.90
9939;DHT22;5008;50.656;7.188;2024-02-21T20:20:37;10.90;99.90
9939;DHT22;5008;50.656;7.188;2024-02-21T20:23:06;10.80;99.90
9939;DHT22;5008;50.656;7.188;2024-02-21T20:25:38;10.80;99.90
9939;DHT22;5008;50.656;7.188;2024-02-21T20:28:05;10.70;99.90
9939;DHT22;5008;50.656;7.188;2024-02-21T20:30:32;10.70;99.90
9939;DHT22;5008;50.656;7.188;2024-02-21T20:32:59;10.60;99.90
9939;DHT22;5008;50.656;7.188;2024-02-21T20:35:26;10.50;99.90
9939;DHT22;5008;50.656;7.188;2024-02-21T20:37:54;10.40;99.90
9939;DHT22;5008;50.656;7.188;2024-02-21T20:40:22;10.40;99.90
9939;DHT22;5008;50.656;7.188;2024-02-21T20:42:51;10.30;99.90
9939;DHT22;5008;50.656;7.188;2024-02-21T20:45:18;10.30;99.90
9939;DHT22;5008;50.656;7.188;2024-02-21T20:47:45;10.30;99.90
9939;DHT22;5008;50.656;7.188;2024-02-21T20:50:13;10.20;99.90
9939;DHT22;5008;50.656;7.188;2024-02-21T20:52:41;10.20;99.90
9939;DHT22;5008;50.656;7.188;2024-02-21T20:55:08;10.10;99.90
9939;DHT22;5008;50.656;7.188;2024-02-21T20:57:36;10.10;99.90
9939;DHT22;5008;50.656;7.188;2024-02-21T21:00:05;10.10;99.90
9939;DHT22;5008;50.656;7.188;2024-02-21T21:02:33;10.10;99.90
9939;DHT22;5008;50.656;7.188;2024-02-21T21:04:59;10.00;99.90